Time;durP1;ratioP1;P1;durP2;ratioP2;P2;SDS_P1;SDS_P2;PMS_P1;PMS_P2;Temp;Humidity;BMP_temperature;BMP_pressure;BME280_temperature;BME280_humidity;BME280_pressure;Samples;Min_cycle;Max_cycle;Signal;HPM_P1;HPM_P2
2023/04/01 00:02:18;;;;;;;4.10;1.83;;;10.90;99.90;;;;;;4972118;28;20661;-77
2023/04/01 00:04:44;;;;;;;5.70;1.97;;;10.90;99.90;;;;;;4976352;28;20236;-77
2023/04/01 00:07:11;;;;;;;5.20;1.90;;;10.90;99.90;;;;;;4974437;28;20297;-76
2023/04/01 00:09:37;;;;;;;3.57;1.70;;;10.90;99.90;;;;;;4977358;28;20594;-76
2023/04/01 00:12:03;;;;;;;2.43;1.77;;;10.90;99.90;;;;;;4978198;28;20746;-76
2023/04/01 00:14:29;;;;;;;5.73;2.30;;;10.90;99.90;;;;;;4983539;28;20294;-76
2023/04/01 00:16:55;;;;;;;4.37;2.10;;;10.90;99.90;;;;;;4987848;28;20288;-76
2023/04/01 00:19:20;;;;;;;2.97;1.93;;;10.90;99.90;;;;;;4978970;28;20270;-76
2023/04/01 00:21:46;;;;;;;3.97;2.10;;;10.90;99.90;;;;;;4982968;28;20204;-76
2023/04/01 00:24:12;;;;;;;5.10;2.37;;;10.90;99.90;;;;;;4979084;28;20207;-76
2023/04/01 00:26:37;;;;;;;3.50;1.53;;;10.80;99.90;;;;;;4980231;28;20210;-77
2023/04/01 00:29:03;;;;;;;2.93;2.00;;;10.90;99.90;;;;;;4978471;28;20202;-76
2023/04/01 00:31:29;;;;;;;4.73;1.80;;;10.90;99.90;;;;;;4977865;28;20183;-75
2023/04/01 00:33:56;;;;;;;5.43;2.00;;;10.90;99.90;;;;;;4975750;28;20660;-76
2023/04/01 00:36:22;;;;;;;3.93;1.80;;;10.90;99.90;;;;;;4975443;28;20246;-77
2023/04/01 00:38:49;;;;;;;2.60;2.03;;;10.90;99.90;;;;;;4975648;28;20329;-77
2023/04/01 00:41:16;;;;;;;4.83;2.10;;;10.90;99.90;;;;;;4975403;28;20257;-77
2023/04/01 00:43:43;;;;;;;5.43;2.07;;;10.90;99.90;;;;;;4974002;28;20221;-77
2023/04/01 00:46:09;;;;;;;13.77;6.83;;;10.90;99.90;;;;;;4975298;28;20206;-77
2023/04/01 00:48:38;;;;;;;4.43;2.10;;;10.90;99.90;;;;;;4984335;28;20213;-77
2023/04/01 00:51:08;;;;;;;3.97;1.93;;;10.90;99.90;;;;;;4975926;28;20213;-77
2023/04/01 00:53:39;;;;;;;5.17;2.73;;;10.80;99.90;;;;;;4981593;28;20228;-77
2023/04/01 00:56:15;;;;;;;11.67;5.03;;;10.80;99.90;;;;;;4996620;28;20206;-77
2023/04/01 00:58:49;;;;;;;3.83;2.10;;;10.90;99.90;;;;;;4984327;28;20588;-76
2023/04/01 01:01:15;;;;;;;3.70;1.70;;;10.90;99.90;;;;;;4976443;28;20643;-76
2023/04/01 01:03:41;;;;;;;3.80;1.73;;;10.90;99.90;;;;;;4977469;28;20206;-76
2023/04/01 01:06:25;;;;;;;3.70;2.10;;;10.80;99.90;;;;;;4978046;28;20218;-78
2023/04/01 01:09:09;;;;;;;4.83;2.17;;;10.90;99.90;;;;;;4979489;28;20197;-78
2023/04/01 01:12:03;;;;;;;4.47;1.60;;;10.80;99.90;;;;;;4977983;28;20217;-77
2023/04/01 01:14:47;;;;;;;5.53;1.87;;;10.80;99.90;;;;;;4976099;28;20218;-75
2023/04/01 01:17:34;;;;;;;3.83;2.00;;;10.90;99.90;;;;;;4973140;28;20703;-75
2023/04/01 01:20:31;;;;;;;3.57;1.73;;;10.90;99.90;;;;;;4974453;28;20213;-77
2023/04/01 01:23:16;;;;;;;3.67;2.20;;;10.90;99.90;;;;;;4973643;28;20222;-75
2023/04/01 01:26:00;;;;;;;3.73;1.97;;;10.80;99.90;;;;;;4972278;28;20704;-77
2023/04/01 01:29:00;;;;;;;3.27;1.70;;;10.80;99.90;;;;;;4969883;28;20186;-76
2023/04/01 01:31:36;;;;;;;3.57;2.10;;;10.80;99.90;;;;;;4973244;28;20168;-75
2023/04/01 01:34:02;;;;;;;5.63;1.77;;;10.80;99.90;;;;;;4980163;28;20526;-77
2023/04/01 01:36:34;;;;;;;3.57;1.90;;;10.80;99.90;;;;;;4978499;28;20305;-75
2023/04/01 01:39:02;;;;;;;4.40;2.17;;;10.80;99.90;;;;;;4981021;28;20296;-77
2023/04/01 01:41:30;;;;;;;3.87;2.00;;;10.80;99.90;;;;;;4976440;28;20228;-75
2023/04/01 01:43:58;;;;;;;2.37;1.60;;;10.80;99.90;;;;;;4979516;28;20205;-77
2023/04/01 01:46:26;;;;;;;3.60;1.67;;;10.80;99.90;;;;;;4975668;28;20201;-77
2023/04/01 01:48:53;;;;;;;8.27;2.47;;;10.90;99.90;;;;;;4975748;28;20182;-77
2023/04/01 01:51:21;;;;;;;4.00;1.90;;;10.80;99.90;;;;;;4976387;28;20214;-77
2023/04/01 01:53:47;;;;;;;4.10;2.03;;;10.80;99.90;;;;;;4976682;28;20761;-75
2023/04/01 01:56:13;;;;;;;2.93;1.87;;;10.80;99.90;;;;;;4973732;28;20213;-76
2023/04/01 01:58:48;;;;;;;3.77;1.80;;;10.80;99.90;;;;;;4974999;28;20206;-77
2023/04/01 02:01:27;;;;;;;4.47;1.70;;;10.80;99.90;;;;;;4977841;28;20201;-77
2023/04/01 02:03:55;;;;;;;4.27;1.90;;;10.70;99.90;;;;;;4974338;28;20293;-77
2023/04/01 02:06:23;;;;;;;5.13;1.87;;;10.70;99.90;;;;;;4980270;28;20222;-77
2023/04/01 02:09:02;;;;;;;5.53;1.60;;;10.70;99.90;;;;;;4978645;28;20222;-76
2023/04/01 02:12:00;;;;;;;3.27;1.90;;;10.80;99.90;;;;;;4991397;28;20269;-77
2023/04/01 02:14:41;;;;;;;2.80;1.70;;;10.80;99.90;;;;;;4980983;28;20210;-77
2023/04/01 02:17:19;;;;;;;3.60;2.00;;;10.70;99.90;;;;;;4972897;28;20245;-77
2023/04/01 02:19:54;;;;;;;3.33;2.23;;;10.80;99.90;;;;;;4979885;28;20693;-74
2023/04/01 02:22:24;;;;;;;3.10;1.67;;;10.70;99.90;;;;;;4972943;28;20236;-76
2023/04/01 02:24:53;;;;;;;3.10;1.77;;;10.80;99.90;;;;;;4987882;28;20181;-75
2023/04/01 02:27:20;;;;;;;5.13;1.73;;;10.80;99.90;;;;;;4974920;28;20210;-77
2023/04/01 02:29:45;;;;;;;2.97;1.70;;;10.80;99.90;;;;;;4977070;28;20210;-76
2023/04/01 02:32:14;;;;;;;3.93;1.63;;;10.80;99.90;;;;;;4974155;28;20269;-77
2023/04/01 02:34:40;;;;;;;4.23;1.90;;;10.80;99.90;;;;;;4978296;28;20214;-77
2023/04/01 02:37:06;;;;;;;4.67;2.00;;;10.80;99.90;;;;;;4974762;28;20190;-78
2023/04/01 02:39:31;;;;;;;3.27;1.77;;;10.80;99.90;;;;;;4973630;28;20207;-76
2023/04/01 02:41:57;;;;;;;4.57;1.73;;;10.80;99.90;;;;;;4967389;28;20234;-77
2023/04/01 02:44:23;;;;;;;7.13;1.97;;;10.80;99.90;;;;;;4964485;28;20214;-77
2023/04/01 02:46:48;;;;;;;5.93;1.90;;;10.70;99.90;;;;;;4975244;28;20210;-77
2023/04/01 02:49:14;;;;;;;3.30;1.93;;;10.70;99.90;;;;;;4983215;28;20177;-77
2023/04/01 02:51:40;;;;;;;2.83;1.30;;;10.60;99.90;;;;;;4983255;28;20289;-77
2023/04/01 02:54:05;;;;;;;3.13;1.83;;;10.60;99.90;;;;;;4975859;28;20307;-76
2023/04/01 02:56:31;;;;;;;5.37;2.00;;;10.70;99.90;;;;;;4980765;28;20214;-77
2023/04/01 02:58:57;;;;;;;4.87;2.10;;;10.70;99.90;;;;;;4983275;28;20538;-76
2023/04/01 03:01:22;;;;;;;2.87;1.73;;;10.70;99.90;;;;;;4979712;28;20740;-77
2023/04/01 03:03:48;;;;;;;2.53;2.03;;;10.70;99.90;;;;;;4981849;28;20221;-77
2023/04/01 03:06:15;;;;;;;2.67;1.70;;;10.70;99.90;;;;;;4976708;28;20218;-77
2023/04/01 03:08:41;;;;;;;5.03;2.03;;;10.70;99.90;;;;;;4975314;28;20218;-77
2023/04/01 03:11:07;;;;;;;4.87;1.97;;;10.60;99.90;;;;;;4978035;28;20253;-75
2023/04/01 03:13:32;;;;;;;5.93;1.90;;;10.70;99.90;;;;;;4977130;28;20182;-77
2023/04/01 03:15:58;;;;;;;5.23;1.53;;;10.60;99.90;;;;;;4975940;28;20606;-77
2023/04/01 03:18:24;;;;;;;3.77;1.70;;;10.70;99.90;;;;;;4974843;28;20314;-77
2023/04/01 03:20:49;;;;;;;3.50;1.70;;;10.70;99.90;;;;;;4978500;28;20262;-77
2023/04/01 03:23:17;;;;;;;3.07;1.83;;;10.60;99.90;;;;;;4974163;28;20218;-77
2023/04/01 03:25:43;;;;;;;2.93;1.80;;;10.70;99.90;;;;;;4982077;28;20225;-77
2023/04/01 03:28:09;;;;;;;3.57;1.90;;;10.70;99.90;;;;;;4976545;28;20182;-77
2023/04/01 03:30:35;;;;;;;2.97;2.10;;;10.70;99.90;;;;;;4980210;28;20210;-74
2023/04/01 03:33:01;;;;;;;4.30;2.00;;;10.70;99.90;;;;;;4977389;28;20294;-77
2023/04/01 03:35:27;;;;;;;5.70;2.10;;;10.70;99.90;;;;;;4979731;28;20772;-76
2023/04/01 03:37:53;;;;;;;5.07;2.30;;;10.70;99.90;;;;;;4980755;28;20353;-76
2023/04/01 03:40:20;;;;;;;4.00;2.40;;;10.70;99.90;;;;;;4977870;28;20190;-76
2023/04/01 03:42:46;;;;;;;4.07;2.00;;;10.70;99.90;;;;;;4980037;28;20230;-75
2023/04/01 03:45:12;;;;;;;4.63;1.80;;;10.70;99.90;;;;;;4977487;28;20206;-77
2023/04/01 03:47:38;;;;;;;6.20;1.90;;;10.60;99.90;;;;;;4980373;28;20321;-77
2023/04/01 03:50:05;;;;;;;4.30;2.07;;;10.70;99.90;;;;;;4978009;28;20213;-76
2023/04/01 03:52:31;;;;;;;2.63;1.70;;;10.70;99.90;;;;;;4976275;28;20225;-75
2023/04/01 03:54:57;;;;;;;5.53;1.80;;;10.70;99.90;;;;;;4986988;28;20205;-76
2023/04/01 03:57:22;;;;;;;4.07;1.97;;;10.70;99.90;;;;;;4975363;28;20257;-77
2023/04/01 03:59:48;;;;;;;4.20;2.30;;;10.70;99.90;;;;;;4973677;28;20422;-78
2023/04/01 04:02:14;;;;;;;2.83;1.63;;;10.70;99.90;;;;;;4978445;28;20218;-77
2023/04/01 04:04:40;;;;;;;5.57;1.97;;;10.70;99.90;;;;;;4981916;28;20953;-76
2023/04/01 04:07:06;;;;;;;5.10;2.07;;;10.70;99.90;;;;;;4984707;28;20213;-77
2023/04/01 04:09:33;;;;;;;4.73;2.13;;;10.80;99.90;;;;;;4979562;28;20215;-76
2023/04/01 04:11:59;;;;;;;2.67;1.77;;;10.70;99.90;;;;;;4979903;28;20217;-78
2023/04/01 04:14:24;;;;;;;2.93;1.70;;;10.70;99.90;;;;;;4986658;28;20209;-77
2023/04/01 04:16:50;;;;;;;5.37;2.40;;;10.70;99.90;;;;;;5000981;28;20210;-76
2023/04/01 04:19:16;;;;;;;4.60;2.00;;;10.80;99.90;;;;;;4979272;28;20170;-74
2023/04/01 04:21:42;;;;;;;4.83;2.27;;;10.70;99.90;;;;;;4984588;28;20229;-76
2023/04/01 04:24:08;;;;;;;5.90;2.10;;;10.70;99.90;;;;;;4973629;28;20207;-76
2023/04/01 04:26:34;;;;;;;6.77;2.47;;;10.70;99.90;;;;;;4975438;28;20207;-76
2023/04/01 04:29:00;;;;;;;3.97;1.90;;;10.70;99.90;;;;;;4977332;28;20213;-76
2023/04/01 04:31:26;;;;;;;6.53;2.13;;;10.70;99.90;;;;;;4978508;28;20185;-78
2023/04/01 04:33:53;;;;;;;6.33;2.53;;;10.70;99.90;;;;;;4974221;28;20187;-76
2023/04/01 04:36:20;;;;;;;4.10;2.17;;;10.70;99.90;;;;;;4973107;28;20214;-77
2023/04/01 04:38:46;;;;;;;3.97;2.37;;;10.70;99.90;;;;;;4972999;28;20642;-75
2023/04/01 04:41:17;;;;;;;6.10;2.67;;;10.70;99.90;;;;;;4973256;28;20914;-77
2023/04/01 04:43:49;;;;;;;6.50;2.40;;;10.70;99.90;;;;;;4973888;28;20699;-74
2023/04/01 04:46:15;;;;;;;5.93;2.47;;;10.70;99.90;;;;;;4982975;28;20569;-77
2023/04/01 04:48:41;;;;;;;7.47;2.50;;;10.70;99.90;;;;;;4980091;28;20220;-77
2023/04/01 04:51:07;;;;;;;6.10;2.70;;;10.70;99.90;;;;;;4974837;28;20610;-76
2023/04/01 04:53:32;;;;;;;6.90;2.50;;;10.70;99.90;;;;;;4979111;28;20207;-77
2023/04/01 04:55:58;;;;;;;7.97;3.00;;;10.70;99.90;;;;;;4980323;28;21406;-77
2023/04/01 04:58:24;;;;;;;6.80;2.90;;;10.70;99.90;;;;;;4981631;28;20174;-77
2023/04/01 05:00:49;;;;;;;5.00;2.73;;;10.70;99.90;;;;;;4977414;28;20552;-78
2023/04/01 05:03:15;;;;;;;7.63;3.00;;;10.70;99.90;;;;;;4972986;28;20729;-75
2023/04/01 05:05:48;;;;;;;5.93;3.10;;;10.70;99.90;;;;;;4970900;28;20329;-74
2023/04/01 05:08:14;;;;;;;5.43;2.60;;;10.70;99.90;;;;;;4971789;28;20207;-77
2023/04/01 05:10:40;;;;;;;7.83;3.00;;;10.70;99.90;;;;;;4972946;28;20221;-75
2023/04/01 05:13:06;;;;;;;6.77;2.77;;;10.60;99.90;;;;;;4972265;28;20182;-74
2023/04/01 05:15:32;;;;;;;3.73;2.40;;;10.60;99.90;;;;;;4974892;28;20206;-78
2023/04/01 05:17:57;;;;;;;6.43;2.50;;;10.60;99.90;;;;;;4973111;28;20294;-77
2023/04/01 05:20:23;;;;;;;4.33;2.30;;;10.60;99.90;;;;;;4972981;28;20210;-78
2023/04/01 05:22:49;;;;;;;6.30;2.57;;;10.60;99.90;;;;;;4971292;28;20222;-79
2023/04/01 05:25:14;;;;;;;8.53;3.13;;;10.70;99.90;;;;;;4973190;28;20179;-77
2023/04/01 05:27:40;;;;;;;7.93;2.90;;;10.70;99.90;;;;;;4972948;28;20630;-78
2023/04/01 05:30:06;;;;;;;4.73;2.90;;;10.70;99.90;;;;;;4980188;28;20203;-78
2023/04/01 05:32:32;;;;;;;5.97;2.37;;;10.70;99.90;;;;;;4971595;28;20723;-78
2023/04/01 05:34:57;;;;;;;5.00;2.93;;;10.80;99.90;;;;;;4977462;28;20214;-78
2023/04/01 05:37:23;;;;;;;4.83;2.80;;;10.70;99.90;;;;;;4974454;28;20214;-77
2023/04/01 05:39:49;;;;;;;4.53;3.17;;;10.70;99.90;;;;;;4977628;28;20190;-76
2023/04/01 05:42:15;;;;;;;8.27;2.67;;;10.80;99.90;;;;;;4973252;28;20621;-77
2023/04/01 05:44:41;;;;;;;5.63;2.73;;;10.80;99.90;;;;;;4973003;28;20213;-77
2023/04/01 05:47:06;;;;;;;5.57;2.67;;;10.80;99.90;;;;;;4972726;28;20214;-77
2023/04/01 05:49:33;;;;;;;6.67;2.50;;;10.70;99.90;;;;;;4971986;28;20175;-78
2023/04/01 05:51:59;;;;;;;7.73;3.10;;;10.80;99.90;;;;;;4973434;28;20257;-76
2023/04/01 05:54:25;;;;;;;4.37;2.23;;;10.80;99.90;;;;;;4971767;28;20289;-76
2023/04/01 05:56:50;;;;;;;5.60;2.50;;;10.80;99.90;;;;;;4972152;28;20218;-76
2023/04/01 05:59:16;;;;;;;6.63;2.50;;;10.80;99.90;;;;;;4981859;28;20241;-76
2023/04/01 06:01:41;;;;;;;5.00;2.50;;;10.80;99.90;;;;;;4970268;28;20309;-76
2023/04/01 06:04:13;;;;;;;9.27;3.43;;;10.90;99.90;;;;;;4973045;28;20185;-76
2023/04/01 06:06:40;;;;;;;6.40;3.37;;;10.90;99.90;;;;;;4972079;28;20234;-76
2023/04/01 06:09:27;;;;;;;8.57;2.77;;;10.90;99.90;;;;;;4972172;28;20747;-77
2023/04/01 06:12:10;;;;;;;9.40;2.77;;;11.00;99.90;;;;;;4972140;28;20238;-76
2023/04/01 06:15:19;;;;;;;7.20;2.90;;;11.00;99.90;;;;;;4970958;28;20256;-77
2023/04/01 06:18:22;;;;;;;4.83;3.30;;;11.10;99.90;;;;;;4969145;28;20206;-75
2023/04/01 06:21:06;;;;;;;8.70;3.03;;;11.00;99.90;;;;;;4969458;28;20232;-77
2023/04/01 06:23:52;;;;;;;4.23;2.40;;;10.90;99.90;;;;;;4972305;28;20232;-77
2023/04/01 06:26:45;;;;;;;5.90;2.70;;;10.90;99.90;;;;;;4976495;28;20227;-79
2023/04/01 06:29:13;;;;;;;5.10;2.40;;;10.90;99.90;;;;;;4969076;28;20788;-76
2023/04/01 06:32:04;;;;;;;6.17;2.63;;;10.90;99.90;;;;;;4974079;28;20187;-76
2023/04/01 06:34:38;;;;;;;6.07;2.50;;;11.00;99.90;;;;;;4973897;28;20182;-75
2023/04/01 06:37:42;;;;;;;6.77;2.50;;;11.00;99.90;;;;;;4986358;28;20198;-77
2023/04/01 06:40:29;;;;;;;5.20;2.20;;;11.00;99.90;;;;;;4973004;28;20202;-77
2023/04/01 06:43:07;;;;;;;5.80;2.73;;;11.00;99.90;;;;;;4977782;28;20312;-77
2023/04/01 06:45:57;;;;;;;4.70;2.57;;;11.00;99.90;;;;;;4976045;28;20217;-77
2023/04/01 06:48:49;;;;;;;3.83;2.20;;;11.00;99.90;;;;;;4973467;28;20701;-77
2023/04/01 06:51:30;;;;;;;4.40;2.87;;;11.00;99.90;;;;;;4974594;28;20199;-77
2023/04/01 06:54:11;;;;;;;6.60;2.60;;;11.10;99.90;;;;;;4974280;28;20214;-77
2023/04/01 06:56:41;;;;;;;7.63;2.70;;;11.10;99.90;;;;;;4973487;28;20218;-77
2023/04/01 06:59:13;;;;;;;5.87;2.73;;;11.10;99.90;;;;;;4975651;28;20210;-78
2023/04/01 07:01:55;;;;;;;8.87;2.87;;;11.10;99.90;;;;;;4974026;28;20241;-77
2023/04/01 07:04:29;;;;;;;6.07;2.80;;;11.10;99.90;;;;;;4975637;28;20217;-75
2023/04/01 07:07:23;;;;;;;5.87;2.90;;;11.10;99.90;;;;;;4973492;28;20244;-77
2023/04/01 07:09:53;;;;;;;6.50;2.50;;;11.10;99.90;;;;;;4973347;28;20226;-77
2023/04/01 07:12:31;;;;;;;5.60;2.43;;;11.20;99.90;;;;;;4968526;28;20214;-77
2023/04/01 07:15:01;;;;;;;5.83;2.77;;;11.20;99.90;;;;;;4975718;28;20311;-77
2023/04/01 07:17:35;;;;;;;7.37;2.70;;;11.20;99.90;;;;;;4974521;28;20268;-77
2023/04/01 07:20:23;;;;;;;5.77;2.40;;;11.30;99.90;;;;;;4975169;28;20306;-77
2023/04/01 07:22:51;;;;;;;5.53;2.60;;;11.40;99.90;;;;;;4973655;28;20238;-76
2023/04/01 07:25:18;;;;;;;8.37;2.63;;;11.40;99.90;;;;;;4977040;28;20210;-76
2023/04/01 07:27:45;;;;;;;6.27;2.43;;;11.50;99.90;;;;;;4976088;28;20300;-77
2023/04/01 07:30:19;;;;;;;3.83;2.77;;;11.60;99.90;;;;;;4982694;28;20209;-77
2023/04/01 07:32:50;;;;;;;4.20;2.40;;;11.70;99.90;;;;;;4972323;28;20285;-76
2023/04/01 07:35:26;;;;;;;10.53;3.10;;;11.70;99.90;;;;;;4971803;28;20221;-77
2023/04/01 07:38:09;;;;;;;5.50;2.50;;;11.80;99.90;;;;;;4975183;28;20276;-77
2023/04/01 07:41:06;;;;;;;7.47;2.87;;;11.80;99.90;;;;;;4972232;28;20191;-75
2023/04/01 07:43:54;;;;;;;3.83;2.13;;;11.90;99.90;;;;;;4972721;28;20234;-77
2023/04/01 07:46:50;;;;;;;5.40;2.10;;;11.90;99.90;;;;;;4974509;28;20214;-76
2023/04/01 07:49:21;;;;;;;5.17;1.90;;;12.00;99.90;;;;;;4970586;28;20212;-77
2023/04/01 07:52:11;;;;;;;6.00;2.13;;;12.10;99.90;;;;;;4974680;28;20313;-75
2023/04/01 07:54:49;;;;;;;5.03;2.28;;;12.30;99.90;;;;;;4979659;28;20684;-77
2023/04/01 07:57:32;;;;;;;4.57;2.22;;;12.40;99.90;;;;;;4970876;28;20237;-75
2023/04/01 08:00:16;;;;;;;2.40;1.67;;;12.50;99.90;;;;;;4970319;28;20211;-76
2023/04/01 08:03:28;;;;;;;3.33;1.90;;;12.60;99.90;;;;;;4970601;28;20233;-77
2023/04/01 08:06:02;;;;;;;7.00;2.55;;;12.70;99.90;;;;;;4985750;28;20222;-76
2023/04/01 08:08:42;;;;;;;5.55;1.98;;;12.80;99.90;;;;;;4972526;28;20650;-77
2023/04/01 08:11:45;;;;;;;3.50;1.88;;;12.80;99.90;;;;;;4972442;28;20288;-79
2023/04/01 08:14:35;;;;;;;4.10;2.15;;;12.70;99.90;;;;;;4975456;28;20217;-77
2023/04/01 08:17:01;;;;;;;5.10;1.73;;;12.70;99.90;;;;;;4971218;28;20657;-76
2023/04/01 08:20:11;;;;;;;3.22;1.50;;;12.70;99.90;;;;;;4972991;28;20190;-76
2023/04/01 08:22:51;;;;;;;2.20;1.63;;;12.60;99.90;;;;;;4970820;28;20355;-78
2023/04/01 08:25:23;;;;;;;1.85;1.55;;;12.50;99.90;;;;;;4973645;28;20260;-76
2023/04/01 08:28:12;;;;;;;3.20;1.35;;;12.50;99.90;;;;;;4973727;28;20229;-76
2023/04/01 08:30:38;;;;;;;1.50;1.08;;;12.30;99.90;;;;;;4976576;28;20294;-80
2023/04/01 08:33:22;;;;;;;2.03;1.50;;;12.30;99.90;;;;;;4968890;28;20289;-77
2023/04/01 08:35:47;;;;;;;2.17;1.33;;;12.20;99.90;;;;;;4969203;28;20214;-78
2023/04/01 08:38:19;;;;;;;4.05;2.22;;;12.00;99.90;;;;;;4972727;28;20697;-76
2023/04/01 08:41:10;;;;;;;1.75;1.30;;;12.00;99.90;;;;;;4969410;28;20712;-78
2023/04/01 08:43:40;;;;;;;2.03;1.70;;;11.80;99.90;;;;;;4952497;28;20190;-77
2023/04/01 08:46:25;;;;;;;2.43;1.93;;;11.60;99.90;;;;;;4972837;28;20202;-78
2023/04/01 08:49:28;;;;;;;2.13;1.80;;;11.30;99.90;;;;;;4970140;28;20207;-78
2023/04/01 08:52:22;;;;;;;2.60;2.40;;;11.40;99.90;;;;;;4970568;28;20218;-76
2023/04/01 08:55:18;;;;;;;2.50;2.13;;;11.30;99.90;;;;;;4972870;28;20292;-79
2023/04/01 08:58:02;;;;;;;4.60;3.07;;;11.10;99.90;;;;;;4970834;28;20210;-78
2023/04/01 09:00:51;;;;;;;6.20;3.80;;;10.70;99.90;;;;;;4971479;28;20599;-78
2023/04/01 09:03:36;;;;;;;4.73;3.63;;;10.60;99.90;;;;;;4970115;28;20296;-78
2023/04/01 09:06:31;;;;;;;5.90;3.80;;;10.50;99.90;;;;;;4961299;28;20677;-78
2023/04/01 09:09:00;;;;;;;5.53;3.97;;;10.50;99.90;;;;;;4954501;28;20247;-77
2023/04/01 09:11:43;;;;;;;5.63;3.67;;;10.50;99.90;;;;;;4960363;28;20222;-77
2023/04/01 09:14:22;;;;;;;5.47;4.40;;;10.50;99.90;;;;;;4965304;28;20210;-77
2023/04/01 09:17:21;;;;;;;6.77;4.60;;;10.50;99.90;;;;;;4972574;28;20218;-77
2023/04/01 09:20:24;;;;;;;6.97;5.30;;;10.50;99.90;;;;;;4971356;28;20292;-76
2023/04/01 09:23:02;;;;;;;8.50;5.63;;;10.60;99.90;;;;;;4972124;28;20233;-76
2023/04/01 09:25:39;;;;;;;8.53;6.70;;;10.70;99.90;;;;;;4955692;28;20637;-78
2023/04/01 09:28:18;;;;;;;7.90;6.30;;;10.80;99.90;;;;;;4965457;28;20558;-74
2023/04/01 09:31:05;;;;;;;11.27;6.97;;;10.60;99.90;;;;;;4972011;28;20217;-76
2023/04/01 09:33:59;;;;;;;7.70;6.47;;;10.50;99.90;;;;;;4977471;28;20209;-74
2023/04/01 09:36:46;;;;;;;10.43;7.90;;;10.40;99.90;;;;;;4988117;28;20218;-74
2023/04/01 09:39:12;;;;;;;11.97;7.60;;;10.20;99.90;;;;;;4971470;28;20604;-77
2023/04/01 09:42:00;;;;;;;10.80;7.63;;;10.10;99.90;;;;;;4972974;28;20225;-78
2023/04/01 09:44:36;;;;;;;9.93;7.53;;;10.00;99.90;;;;;;4968816;28;20218;-77
2023/04/01 09:47:08;;;;;;;11.43;8.10;;;9.80;99.90;;;;;;4969654;28;20680;-77
2023/04/01 09:50:11;;;;;;;9.43;7.73;;;9.80;99.90;;;;;;4970864;28;20244;-76
2023/04/01 09:52:47;;;;;;;12.83;9.13;;;9.70;99.90;;;;;;4970381;28;20391;-77
2023/04/01 09:55:43;;;;;;;13.80;10.20;;;9.60;99.90;;;;;;4975047;28;20184;-77
2023/04/01 09:58:21;;;;;;;12.07;8.97;;;9.70;99.90;;;;;;5005846;28;20220;-77
2023/04/01 10:00:59;;;;;;;13.40;10.30;;;9.80;99.90;;;;;;4968811;28;20264;-75
2023/04/01 10:03:52;;;;;;;11.37;9.37;;;9.70;99.90;;;;;;4967756;28;20250;-77
2023/04/01 10:06:55;;;;;;;12.07;8.53;;;9.70;99.90;;;;;;4968446;28;20238;-76
2023/04/01 10:09:45;;;;;;;12.97;9.30;;;9.70;99.90;;;;;;4976191;28;20218;-76
2023/04/01 10:12:32;;;;;;;15.00;10.70;;;9.70;99.90;;;;;;4974465;28;20209;-75
2023/04/01 10:15:40;;;;;;;12.90;9.60;;;9.80;99.90;;;;;;4975377;28;20213;-73
2023/04/01 10:18:28;;;;;;;12.93;9.23;;;9.80;99.90;;;;;;4975366;28;20246;-77
2023/04/01 10:21:00;;;;;;;12.37;9.50;;;9.80;99.90;;;;;;4979594;28;20264;-77
2023/04/01 10:23:56;;;;;;;10.30;8.47;;;9.80;99.90;;;;;;4971686;28;20214;-77
2023/04/01 10:26:56;;;;;;;9.40;7.53;;;9.90;99.90;;;;;;4966267;28;20216;-77
2023/04/01 10:29:27;;;;;;;10.23;8.30;;;9.80;99.90;;;;;;4973926;28;20207;-77
2023/04/01 10:31:59;;;;;;;9.53;7.90;;;10.00;99.90;;;;;;4967228;28;20220;-77
2023/04/01 10:34:46;;;;;;;8.93;7.80;;;9.80;99.90;;;;;;4971479;28;20178;-78
2023/04/01 10:37:50;;;;;;;10.90;9.27;;;9.80;99.90;;;;;;4970820;28;20226;-75
2023/04/01 10:40:50;;;;;;;11.50;9.67;;;9.80;99.90;;;;;;4970605;28;20210;-77
2023/04/01 10:43:24;;;;;;;14.03;10.17;;;9.80;99.90;;;;;;4970582;28;20578;-78
2023/04/01 10:46:12;;;;;;;13.60;10.77;;;10.00;99.90;;;;;;4969114;28;20206;-77
2023/04/01 10:49:19;;;;;;;11.53;9.50;;;10.10;99.90;;;;;;4972442;28;20202;-77
2023/04/01 10:52:06;;;;;;;12.60;10.10;;;9.90;99.90;;;;;;4978783;28;20214;-74
2023/04/01 10:54:44;;;;;;;12.20;10.10;;;9.80;99.90;;;;;;4973663;28;20202;-76
2023/04/01 10:57:12;;;;;;;12.17;10.27;;;10.00;99.90;;;;;;4970772;28;20232;-76
2023/04/01 11:00:02;;;;;;;15.80;11.73;;;10.00;99.90;;;;;;4973032;28;20450;-77
2023/04/01 11:02:52;;;;;;;12.37;9.63;;;9.90;99.90;;;;;;4971414;28;20725;-78
2023/04/01 11:05:24;;;;;;;11.33;9.73;;;10.00;99.90;;;;;;4971067;28;20222;-77
2023/04/01 11:07:55;;;;;;;11.47;9.90;;;10.10;99.90;;;;;;4972064;28;20221;-76
2023/04/01 11:10:42;;;;;;;10.93;8.93;;;10.10;99.90;;;;;;4976003;28;20193;-77
2023/04/01 11:13:33;;;;;;;11.50;9.27;;;9.90;99.90;;;;;;4973686;28;20209;-77
2023/04/01 11:16:17;;;;;;;10.33;8.77;;;9.70;99.90;;;;;;4972404;28;20210;-74
2023/04/01 11:19:20;;;;;;;10.00;8.50;;;9.90;99.90;;;;;;4982570;28;20240;-74
2023/04/01 11:21:50;;;;;;;8.80;7.53;;;10.10;99.90;;;;;;4971421;28;20225;-76
2023/04/01 11:24:41;;;;;;;9.97;8.43;;;9.80;99.90;;;;;;4978847;28;20211;-79
2023/04/01 11:27:12;;;;;;;8.90;7.83;;;10.00;99.90;;;;;;4974005;28;20234;-77
2023/04/01 11:29:40;;;;;;;9.53;8.17;;;9.90;99.90;;;;;;4975180;28;20199;-76
2023/04/01 11:32:52;;;;;;;8.40;7.57;;;9.90;99.90;;;;;;4969682;28;20210;-78
2023/04/01 11:35:23;;;;;;;9.07;7.83;;;10.00;99.90;;;;;;4971460;28;20224;-78
2023/04/01 11:38:26;;;;;;;9.30;8.27;;;10.10;99.90;;;;;;4980991;28;20206;-76
2023/04/01 11:41:19;;;;;;;10.03;7.73;;;9.90;99.90;;;;;;4974201;28;20763;-77
2023/04/01 11:44:03;;;;;;;8.17;7.23;;;10.00;99.90;;;;;;4974945;28;20245;-77
2023/04/01 11:46:44;;;;;;;9.73;8.73;;;9.70;99.90;;;;;;4976661;28;20621;-78
2023/04/01 11:49:36;;;;;;;10.97;9.13;;;9.60;99.90;;;;;;4978987;28;20173;-76
2023/04/01 11:52:11;;;;;;;10.17;8.77;;;9.60;99.90;;;;;;4973933;28;20657;-76
2023/04/01 11:55:01;;;;;;;12.17;10.40;;;9.80;99.90;;;;;;4976159;28;20696;-76
2023/04/01 11:58:05;;;;;;;11.27;9.73;;;9.80;99.90;;;;;;4985502;28;20625;-78
2023/04/01 12:01:03;;;;;;;10.93;9.53;;;9.80;99.90;;;;;;4978776;28;20236;-78
2023/04/01 12:03:51;;;;;;;9.53;8.53;;;9.80;99.90;;;;;;4976734;28;20759;-78
2023/04/01 12:06:19;;;;;;;9.93;8.60;;;9.80;99.90;;;;;;4972292;28;20223;-78
2023/04/01 12:09:00;;;;;;;10.80;9.03;;;9.70;99.90;;;;;;4966752;28;20202;-77
2023/04/01 12:11:35;;;;;;;11.43;9.53;;;9.80;99.90;;;;;;4962973;28;20709;-78
2023/04/01 12:14:32;;;;;;;12.47;9.40;;;9.90;99.90;;;;;;4962940;28;20209;-78
2023/04/01 12:17:10;;;;;;;10.43;9.33;;;9.80;99.90;;;;;;4969774;28;20709;-78
2023/04/01 12:19:51;;;;;;;13.43;10.87;;;9.60;99.90;;;;;;4955188;28;20201;-77
2023/04/01 12:22:49;;;;;;;9.10;7.73;;;9.70;99.90;;;;;;4960543;28;20670;-76
2023/04/01 12:25:22;;;;;;;11.17;8.77;;;9.60;99.90;;;;;;4953317;28;20258;-77
2023/04/01 12:28:10;;;;;;;11.20;9.80;;;9.30;99.90;;;;;;4974203;28;20253;-76
2023/04/01 12:31:01;;;;;;;11.33;10.13;;;9.20;99.90;;;;;;4974115;28;20202;-77
2023/04/01 12:33:30;;;;;;;13.27;10.20;;;9.40;99.90;;;;;;4971711;28;20202;-77
2023/04/01 12:36:08;;;;;;;11.50;9.57;;;9.40;99.90;;;;;;4976113;28;20266;-76
2023/04/01 12:38:51;;;;;;;12.70;10.50;;;9.60;99.90;;;;;;4973118;28;20205;-76
2023/04/01 12:41:29;;;;;;;12.30;10.53;;;9.60;99.90;;;;;;4973126;28;20229;-77
2023/04/01 12:44:29;;;;;;;11.57;10.03;;;9.50;99.90;;;;;;4973754;28;20685;-75
2023/04/01 12:47:36;;;;;;;13.17;10.83;;;9.30;99.90;;;;;;4969899;28;20210;-76
2023/04/01 12:50:17;;;;;;;13.17;10.33;;;9.50;99.90;;;;;;4969279;28;20220;-77
2023/04/01 12:53:02;;;;;;;12.23;10.13;;;9.40;99.90;;;;;;4960842;28;20696;-77
2023/04/01 12:55:49;;;;;;;10.20;9.17;;;9.30;99.90;;;;;;4963583;28;20195;-76
2023/04/01 12:58:42;;;;;;;11.63;10.40;;;9.30;99.90;;;;;;4962672;28;20175;-77
2023/04/01 13:01:19;;;;;;;13.03;10.03;;;9.20;99.90;;;;;;4970073;28;20847;-74
2023/04/01 13:03:51;;;;;;;13.23;10.03;;;9.10;99.90;;;;;;4969975;28;20802;-76
2023/04/01 13:06:35;;;;;;;13.70;11.80;;;9.10;99.90;;;;;;4972853;28;20253;-76
2023/04/01 13:09:26;;;;;;;17.10;12.50;;;9.10;99.90;;;;;;4969425;28;20206;-77
2023/04/01 13:12:17;;;;;;;12.47;10.63;;;9.30;99.90;;;;;;4971470;28;20684;-77
2023/04/01 13:15:17;;;;;;;13.77;11.80;;;9.10;99.90;;;;;;4979279;28;20260;-76
2023/04/01 13:17:50;;;;;;;11.90;10.43;;;9.00;99.90;;;;;;4974435;28;20205;-76
2023/04/01 13:20:24;;;;;;;14.43;11.43;;;9.10;99.90;;;;;;4972592;28;20727;-77
2023/04/01 13:23:09;;;;;;;12.50;11.17;;;9.00;99.90;;;;;;4969476;28;20221;-77
2023/04/01 13:25:47;;;;;;;13.97;12.03;;;9.10;99.90;;;;;;4974206;28;20256;-77
2023/04/01 13:28:25;;;;;;;15.37;11.33;;;9.10;99.90;;;;;;4971543;28;20649;-74
2023/04/01 13:31:08;;;;;;;15.60;11.70;;;9.10;99.90;;;;;;4970307;28;20632;-77
2023/04/01 13:33:55;;;;;;;14.37;11.27;;;9.10;99.90;;;;;;4969044;28;20260;-78
2023/04/01 13:36:29;;;;;;;11.27;8.83;;;9.10;99.90;;;;;;4962338;28;20210;-79